createdAt,value
2022-11-02T00:01:28.181Z,19.15
2022-11-02T00:03:56.194Z,16.98
2022-11-02T00:06:24.031Z,18.80
2022-11-02T00:08:53.187Z,19.63
2022-11-02T00:11:21.219Z,18.98
2022-11-02T00:13:49.028Z,17.65
2022-11-02T00:16:21.095Z,23.33
2022-11-02T00:18:52.592Z,15.85
2022-11-02T00:21:22.356Z,18.17
2022-11-02T00:23:50.957Z,16.75
2022-11-02T00:26:21.237Z,16.30
2022-11-02T00:28:49.209Z,14.85
2022-11-02T00:31:17.516Z,18.33
2022-11-02T00:33:45.314Z,20.70
2022-11-02T00:36:13.518Z,16.02
2022-11-02T00:38:41.527Z,21.65
2022-11-02T00:41:09.482Z,15.85
2022-11-02T00:43:38.685Z,17.10
2022-11-02T00:46:06.956Z,19.27
2022-11-02T00:48:35.096Z,19.00
2022-11-02T00:51:03.529Z,16.27
2022-11-02T00:53:31.579Z,18.52
2022-11-02T00:55:59.368Z,17.85
2022-11-02T00:58:27.268Z,22.20
2022-11-02T01:00:57.372Z,19.98
2022-11-02T01:03:25.278Z,15.40
2022-11-02T01:05:53.128Z,18.00
2022-11-02T01:08:21.195Z,24.67
2022-11-02T01:10:49.242Z,17.73
2022-11-02T01:13:17.218Z,19.65
2022-11-02T01:15:45.300Z,16.10
2022-11-02T01:18:14.677Z,15.48
2022-11-02T01:20:42.643Z,15.93
2022-11-02T01:23:10.459Z,17.55
2022-11-02T01:25:38.417Z,21.50
2022-11-02T01:28:06.741Z,16.27
2022-11-02T01:30:34.866Z,17.65
2022-11-02T01:33:02.735Z,15.23
2022-11-02T01:35:31.934Z,14.25
2022-11-02T01:37:59.673Z,17.63
2022-11-02T01:40:27.527Z,15.63
2022-11-02T01:42:55.524Z,16.98
2022-11-02T01:45:23.253Z,14.85
2022-11-02T01:47:51.318Z,18.08
2022-11-02T01:50:22.676Z,17.13
2022-11-02T01:52:51.869Z,16.52
2022-11-02T01:55:23.354Z,15.73
2022-11-02T01:57:55.991Z,16.08
2022-11-02T02:00:24.114Z,18.75
2022-11-02T02:02:57.007Z,18.45
2022-11-02T02:05:25.811Z,14.35
2022-11-02T02:07:56.604Z,20.58
2022-11-02T02:10:24.353Z,18.35
2022-11-02T02:12:52.415Z,17.55
2022-11-02T02:15:24.064Z,18.85
2022-11-02T02:18:00.663Z,19.92
2022-11-02T02:20:43.656Z,22.02
2022-11-02T02:23:34.940Z,17.27
2022-11-02T02:26:32.874Z,18.00
2022-11-02T02:29:05.988Z,18.15
2022-11-02T02:31:41.358Z,15.80
2022-11-02T02:34:16.697Z,16.75
2022-11-02T02:36:48.905Z,18.35
2022-11-02T02:39:21.494Z,17.92
2022-11-02T02:41:58.501Z,21.17
2022-11-02T02:44:32.290Z,21.95
2022-11-02T02:47:05.582Z,17.17
2022-11-02T02:49:38.319Z,22.08
2022-11-02T02:52:07.345Z,18.33
2022-11-02T02:54:39.881Z,18.58
2022-11-02T02:57:10.815Z,27.08
2022-11-02T02:59:42.642Z,17.83
2022-11-02T03:02:16.358Z,21.58
2022-11-02T03:04:44.265Z,19.20
2022-11-02T03:07:15.961Z,20.92
2022-11-02T03:09:50.956Z,18.35
2022-11-02T03:12:29.250Z,19.52
2022-11-02T03:15:10.528Z,22.02
2022-11-02T03:17:48.370Z,19.95
2022-11-02T03:20:25.527Z,19.38
2022-11-02T03:23:03.335Z,21.88
2022-11-02T03:25:40.817Z,20.10
2022-11-02T03:28:15.467Z,20.05
2022-11-02T03:30:49.993Z,23.35
2022-11-02T03:33:21.736Z,17.73
2022-11-02T03:35:55.289Z,23.35
2022-11-02T03:38:26.631Z,18.83
2022-11-02T03:40:57.364Z,21.70
2022-11-02T03:43:26.147Z,23.98
2022-11-02T03:45:58.973Z,17.98
2022-11-02T03:48:31.422Z,23.30
2022-11-02T03:51:04.046Z,19.67
2022-11-02T03:53:40.631Z,16.75
2022-11-02T03:56:11.304Z,21.17
2022-11-02T03:58:39.249Z,18.85
2022-11-02T04:01:09.228Z,20.27
2022-11-02T04:03:41.513Z,19.17
2022-11-02T04:06:09.526Z,16.48
2022-11-02T04:08:40.652Z,21.35
2022-11-02T04:11:26.984Z,18.60
2022-11-02T04:14:12.363Z,22.65
2022-11-02T04:16:41.610Z,20.48
2022-11-02T04:19:27.814Z,15.95
2022-11-02T04:22:13.404Z,19.15
2022-11-02T04:24:58.951Z,16.70
2022-11-02T04:27:27.197Z,23.23
2022-11-02T04:29:55.174Z,17.25
2022-11-02T04:32:38.321Z,25.30
2022-11-02T04:35:07.226Z,22.95
2022-11-02T04:37:57.468Z,24.77
2022-11-02T04:40:25.691Z,22.67
2022-11-02T04:42:53.660Z,21.20
2022-11-02T04:45:21.801Z,22.10
2022-11-02T04:47:51.026Z,19.95
2022-11-02T04:50:19.359Z,20.25
2022-11-02T04:52:47.081Z,19.08
2022-11-02T04:55:14.966Z,26.83
2022-11-02T04:57:46.316Z,19.50
2022-11-02T05:00:15.574Z,28.40
2022-11-02T05:02:43.926Z,24.08
2022-11-02T05:05:13.371Z,25.10
2022-11-02T05:07:41.319Z,20.17
2022-11-02T05:10:09.391Z,19.98
2022-11-02T05:12:37.562Z,22.58
2022-11-02T05:15:06.310Z,17.27
2022-11-02T05:17:34.335Z,19.42
2022-11-02T05:20:02.275Z,18.70
2022-11-02T05:22:31.837Z,20.48
2022-11-02T05:25:09.702Z,25.17
2022-11-02T05:27:38.206Z,23.15
2022-11-02T05:30:07.989Z,20.45
2022-11-02T05:32:35.812Z,23.77
2022-11-02T05:35:03.600Z,24.40
2022-11-02T05:37:32.869Z,21.58
2022-11-02T05:40:00.728Z,22.60
2022-11-02T05:42:28.511Z,21.35
2022-11-02T05:44:56.632Z,20.55
2022-11-02T05:47:24.401Z,22.13
2022-11-02T05:49:52.392Z,27.27
2022-11-02T05:52:20.315Z,17.25
2022-11-02T05:54:49.479Z,22.58
2022-11-02T05:57:18.542Z,30.25
2022-11-02T05:59:49.232Z,22.70
2022-11-02T06:02:19.853Z,18.88
2022-11-02T06:04:49.712Z,22.73
2022-11-02T06:07:17.716Z,18.20
2022-11-02T06:09:45.519Z,22.23
2022-11-02T06:12:14.676Z,20.85
2022-11-02T06:14:42.682Z,26.52
2022-11-02T06:17:10.518Z,32.67
2022-11-02T06:19:38.281Z,24.45
2022-11-02T06:22:06.222Z,23.90
2022-11-02T06:24:34.036Z,19.70
2022-11-02T06:27:01.938Z,23.20
2022-11-02T06:29:31.125Z,21.10
2022-11-02T06:31:58.926Z,30.25
2022-11-02T06:34:26.786Z,27.83
2022-11-02T06:36:54.959Z,27.98
2022-11-02T06:39:22.814Z,22.38
2022-11-02T06:41:50.770Z,29.52
2022-11-02T06:44:18.874Z,23.38
2022-11-02T06:46:48.045Z,29.90
2022-11-02T06:49:16.099Z,36.55
2022-11-02T06:51:43.960Z,29.10
2022-11-02T06:54:11.775Z,25.33
2022-11-02T06:56:40.445Z,24.20
2022-11-02T06:59:08.421Z,25.38
2022-11-02T07:01:36.579Z,37.03
2022-11-02T07:04:06.173Z,30.10
2022-11-02T07:06:34.055Z,26.00
2022-11-02T07:09:01.891Z,30.23
2022-11-02T07:11:30.561Z,33.35
2022-11-02T07:13:58.343Z,27.08
2022-11-02T07:16:26.381Z,32.20
2022-11-02T07:18:54.462Z,36.05
2022-11-02T07:21:23.697Z,32.08
2022-11-02T07:23:52.085Z,36.85
2022-11-02T07:26:20.953Z,29.25
2022-11-02T07:28:48.904Z,35.03
2022-11-02T07:31:16.724Z,36.03
2022-11-02T07:33:44.522Z,32.65
2022-11-02T07:36:13.463Z,44.88
2022-11-02T07:38:43.481Z,34.85
2022-11-02T07:41:11.280Z,31.85
2022-11-02T07:43:41.462Z,33.95
2022-11-02T07:46:12.411Z,33.60
2022-11-02T07:48:40.729Z,29.67
2022-11-02T07:51:11.170Z,30.20
2022-11-02T07:53:39.497Z,33.25
2022-11-02T07:56:09.317Z,29.75
2022-11-02T07:58:37.129Z,32.15
2022-11-02T08:01:05.021Z,28.83
2022-11-02T08:03:33.400Z,33.03
2022-11-02T08:06:02.857Z,28.98
2022-11-02T08:08:30.883Z,28.08
2022-11-02T08:11:05.913Z,27.25
2022-11-02T08:13:35.795Z,19.58
2022-11-02T08:16:03.760Z,27.02
2022-11-02T08:18:32.936Z,22.92
2022-11-02T08:21:01.019Z,24.35
2022-11-02T08:23:28.840Z,25.40
2022-11-02T08:25:59.907Z,28.42
2022-11-02T08:28:31.313Z,24.70
2022-11-02T08:31:00.712Z,25.70
2022-11-02T08:33:28.832Z,18.30
2022-11-02T08:36:03.159Z,21.83
2022-11-02T08:38:31.232Z,18.50
2022-11-02T08:40:58.964Z,19.13
2022-11-02T08:43:26.964Z,17.80
2022-11-02T08:46:16.065Z,21.23
2022-11-02T08:48:46.476Z,27.27
2022-11-02T08:51:14.457Z,25.52
2022-11-02T08:53:44.683Z,20.73
2022-11-02T08:56:15.446Z,19.92
2022-11-02T08:58:43.318Z,20.77
2022-11-02T09:01:11.278Z,24.92
2022-11-02T09:03:40.126Z,21.02
2022-11-02T09:06:09.505Z,19.38
2022-11-02T09:08:37.369Z,23.70
2022-11-02T09:11:05.832Z,21.65
2022-11-02T09:13:33.781Z,24.95
2022-11-02T09:16:02.928Z,23.10
2022-11-02T09:18:31.127Z,20.13
2022-11-02T09:21:02.831Z,21.42
2022-11-02T09:23:32.789Z,21.10
2022-11-02T09:26:00.942Z,24.83
2022-11-02T09:28:28.784Z,23.23
2022-11-02T09:30:56.712Z,18.52
2022-11-02T09:33:24.701Z,24.45
2022-11-02T09:35:52.495Z,28.05
2022-11-02T09:38:20.432Z,22.13
2022-11-02T09:41:02.004Z,21.08
2022-11-02T09:43:41.184Z,22.08
2022-11-02T09:46:13.300Z,21.20
2022-11-02T09:48:44.647Z,25.45
2022-11-02T09:51:16.246Z,20.13
2022-11-02T09:53:52.237Z,23.25
2022-11-02T09:56:21.704Z,20.58
2022-11-02T09:58:55.099Z,24.00
2022-11-02T10:01:35.599Z,20.00
2022-11-02T10:04:33.688Z,26.48
2022-11-02T10:07:11.303Z,18.92
2022-11-02T10:09:49.979Z,19.48
2022-11-02T10:12:25.929Z,17.38
2022-11-02T10:15:02.815Z,20.58
2022-11-02T10:17:34.943Z,18.38
2022-11-02T10:20:08.778Z,16.13
2022-11-02T10:22:41.242Z,17.88
2022-11-02T10:25:16.092Z,14.25
2022-11-02T10:27:49.380Z,15.10
2022-11-02T10:30:20.243Z,15.32
2022-11-02T10:32:53.727Z,16.02
2022-11-02T10:35:41.138Z,13.48
2022-11-02T10:38:27.320Z,15.35
2022-11-02T10:41:14.807Z,15.27
2022-11-02T10:43:56.925Z,16.52
2022-11-02T10:46:42.214Z,18.77
2022-11-02T10:49:20.659Z,17.00
2022-11-02T10:51:48.527Z,18.13
2022-11-02T10:54:21.569Z,13.00
2022-11-02T10:56:57.349Z,18.50
2022-11-02T10:59:27.319Z,16.40
2022-11-02T11:02:11.970Z,13.27
2022-11-02T11:04:40.518Z,11.98
2022-11-02T11:07:16.299Z,14.82
2022-11-02T11:09:51.682Z,16.02
2022-11-02T11:12:25.725Z,19.08
2022-11-02T11:20:36.877Z,14.48
2022-11-02T11:23:26.978Z,21.38
2022-11-02T11:26:10.007Z,15.00
2022-11-02T11:28:41.144Z,13.43
2022-11-02T11:31:13.723Z,18.63
2022-11-02T11:33:51.696Z,18.98
2022-11-02T11:36:29.134Z,15.27
2022-11-02T11:39:00.459Z,16.33
2022-11-02T11:41:29.595Z,17.10
2022-11-02T11:43:58.080Z,20.92
2022-11-02T11:46:40.420Z,16.08
2022-11-02T11:49:27.544Z,17.92
2022-11-02T11:52:05.287Z,16.13
2022-11-02T11:54:34.335Z,20.17
2022-11-02T11:57:24.887Z,13.18
2022-11-02T11:59:55.603Z,17.65
2022-11-02T12:02:27.529Z,21.48
2022-11-02T12:05:15.217Z,12.45
2022-11-02T12:08:13.602Z,18.95
2022-11-02T12:10:51.046Z,14.07
2022-11-02T12:13:33.045Z,17.90
2022-11-02T12:16:13.495Z,13.40
2022-11-02T12:18:57.125Z,17.67
2022-11-02T12:21:43.285Z,16.40
2022-11-02T12:24:32.599Z,11.48
2022-11-02T12:27:15.609Z,13.07
2022-11-02T12:29:59.247Z,14.07
2022-11-02T12:32:43.519Z,16.42
2022-11-02T12:35:29.765Z,23.58
2022-11-02T12:38:18.357Z,14.02
2022-11-02T12:40:57.057Z,15.00
2022-11-02T12:43:39.483Z,16.70
2022-11-02T12:46:16.792Z,19.23
2022-11-02T12:48:54.608Z,13.07
2022-11-02T12:51:29.174Z,16.92
2022-11-02T12:53:59.402Z,17.08
2022-11-02T12:56:33.865Z,18.05
2022-11-02T12:59:01.898Z,23.85
2022-11-02T13:01:36.958Z,18.15
2022-11-02T13:04:14.671Z,18.50
2022-11-02T13:06:47.366Z,12.40
2022-11-02T13:09:23.242Z,13.70
2022-11-02T13:11:57.939Z,15.85
2022-11-02T13:14:29.640Z,17.73
2022-11-02T13:17:04.573Z,23.48
2022-11-02T13:19:37.470Z,17.80
2022-11-02T13:22:10.275Z,13.63
2022-11-02T13:24:43.369Z,14.48
2022-11-02T13:27:36.604Z,10.73
2022-11-02T13:30:14.417Z,16.00
2022-11-02T13:32:46.596Z,20.52
2022-11-02T13:35:20.298Z,13.48
2022-11-02T13:37:54.843Z,22.23
2022-11-02T13:40:27.056Z,14.50
2022-11-02T13:43:23.346Z,15.02
2022-11-02T13:46:11.886Z,15.07
2022-11-02T13:48:54.498Z,19.20
2022-11-02T13:51:30.370Z,17.20
2022-11-02T13:54:04.552Z,18.40
2022-11-02T13:56:36.306Z,19.30
2022-11-02T13:59:07.430Z,14.45
2022-11-02T14:01:39.777Z,19.00
2022-11-02T14:04:10.282Z,19.40
2022-11-02T14:06:48.785Z,18.25
2022-11-02T14:09:30.699Z,20.52
2022-11-02T14:12:28.257Z,16.23
2022-11-02T14:15:47.619Z,18.40
2022-11-02T14:18:28.668Z,23.13
2022-11-02T14:20:56.854Z,12.65
2022-11-02T14:23:41.093Z,17.95
2022-11-02T14:26:56.314Z,22.70
2022-11-02T14:29:51.469Z,19.70
2022-11-02T14:32:27.281Z,17.98
2022-11-02T14:35:17.692Z,31.92
2022-11-02T14:38:02.119Z,25.42
2022-11-02T14:40:38.835Z,21.55
2022-11-02T14:43:30.527Z,22.23
2022-11-02T14:46:09.595Z,28.88
2022-11-02T14:48:46.734Z,29.73
2022-11-02T14:51:20.489Z,22.67
2022-11-02T14:53:51.002Z,22.48
2022-11-02T14:56:19.298Z,24.35
2022-11-02T14:58:55.551Z,26.27
2022-11-02T15:01:24.307Z,27.15
2022-11-02T15:03:52.882Z,34.92
2022-11-02T15:06:25.562Z,26.48
2022-11-02T15:08:56.402Z,33.60
2022-11-02T15:11:47.522Z,25.63
2022-11-02T15:14:55.224Z,25.98
2022-11-02T15:17:52.374Z,30.10
2022-11-02T15:20:32.729Z,39.28
2022-11-02T15:23:28.469Z,26.15
2022-11-02T15:25:59.861Z,40.80
2022-11-02T15:28:30.572Z,26.85
2022-11-02T15:31:05.227Z,35.40
2022-11-02T15:33:38.079Z,45.22
2022-11-02T15:36:09.453Z,30.38
2022-11-02T15:38:40.223Z,33.90
2022-11-02T15:41:22.091Z,33.05
2022-11-02T15:44:11.981Z,37.03
2022-11-02T15:46:53.518Z,33.08
2022-11-02T15:49:36.674Z,38.05
2022-11-02T15:52:15.081Z,31.27
2022-11-02T15:55:05.395Z,32.22
2022-11-02T15:57:44.383Z,37.65
2022-11-02T16:00:19.215Z,27.35
2022-11-02T16:02:50.136Z,36.05
2022-11-02T16:05:21.956Z,32.28
2022-11-02T16:10:40.522Z,39.88
2022-11-02T16:13:17.478Z,29.08
2022-11-02T16:15:46.511Z,26.23
2022-11-02T16:18:27.166Z,37.38
2022-11-02T16:20:57.164Z,38.53
2022-11-02T16:23:28.044Z,30.60
2022-11-02T16:25:58.230Z,42.17
2022-11-02T16:28:27.704Z,39.47
2022-11-02T16:31:00.127Z,35.22
2022-11-02T16:33:33.312Z,32.50
2022-11-02T16:36:02.260Z,31.27
2022-11-02T16:38:30.578Z,34.72
2022-11-02T16:40:58.827Z,34.33
2022-11-02T16:43:27.938Z,34.28
2022-11-02T16:46:03.580Z,32.95
2022-11-02T16:48:34.152Z,38.65
2022-11-02T16:51:11.924Z,30.92
2022-11-02T16:53:42.649Z,35.45
2022-11-02T16:56:27.686Z,31.17
2022-11-02T16:59:00.898Z,38.55
2022-11-02T17:01:35.081Z,27.75
2022-11-02T17:04:15.813Z,36.78
2022-11-02T17:06:44.035Z,25.50
2022-11-02T17:09:24.222Z,32.72
2022-11-02T17:11:53.281Z,26.25
2022-11-02T17:14:22.627Z,22.17
2022-11-02T17:17:06.311Z,37.35
2022-11-02T17:19:54.373Z,36.80
2022-11-02T17:22:27.216Z,29.95
2022-11-02T17:28:02.422Z,29.48
2022-11-02T17:30:47.922Z,29.92
2022-11-02T17:33:28.774Z,28.50
2022-11-02T17:36:05.848Z,29.02
2022-11-02T17:38:34.747Z,38.60
2022-11-02T17:41:23.153Z,27.63
2022-11-02T17:43:50.153Z,35.70
2022-11-02T17:46:18.089Z,27.90
2022-11-02T17:48:45.907Z,30.60
2022-11-02T17:51:15.474Z,36.80
2022-11-02T17:53:43.429Z,27.00
2022-11-02T17:56:12.245Z,31.73
2022-11-02T17:58:40.812Z,28.35
2022-11-02T18:01:13.039Z,26.27
2022-11-02T18:03:41.020Z,27.55
2022-11-02T18:06:09.404Z,28.85
2022-11-02T18:08:52.458Z,31.65
2022-11-02T18:11:25.870Z,25.35
2022-11-02T18:13:54.238Z,31.98
2022-11-02T18:16:22.256Z,27.35
2022-11-02T18:18:50.232Z,34.78
2022-11-02T18:21:17.995Z,35.63
2022-11-02T18:23:47.270Z,41.22
2022-11-02T18:26:15.306Z,27.23
2022-11-02T18:28:43.316Z,34.72
2022-11-02T18:31:11.782Z,39.83
2022-11-02T18:33:39.671Z,31.63
2022-11-02T18:36:10.112Z,33.13
2022-11-02T18:38:38.579Z,39.50
2022-11-02T18:41:23.080Z,38.95
2022-11-02T18:43:51.010Z,29.92
2022-11-02T18:46:19.177Z,43.80
2022-11-02T18:48:47.449Z,25.88
2022-11-02T18:51:15.617Z,24.98
2022-11-02T18:53:43.513Z,28.42
2022-11-02T18:56:13.254Z,36.13
2022-11-02T18:58:41.038Z,43.92
2022-11-02T19:01:10.308Z,42.45
2022-11-02T19:03:38.186Z,37.22
2022-11-02T19:06:24.150Z,37.33
2022-11-02T19:09:09.525Z,47.08
2022-11-02T19:11:38.740Z,37.65
2022-11-02T19:14:06.727Z,40.47
2022-11-02T19:16:34.487Z,39.88
2022-11-02T19:19:02.434Z,44.17
2022-11-02T19:21:30.615Z,36.40
2022-11-02T19:23:58.400Z,46.13
2022-11-02T19:26:26.423Z,37.45
2022-11-02T19:28:57.179Z,36.97
2022-11-02T19:31:26.838Z,33.65
2022-11-02T19:33:54.864Z,32.95
2022-11-02T19:36:23.032Z,38.08
2022-11-02T19:38:50.988Z,40.47
2022-11-02T19:41:19.522Z,43.00
2022-11-02T19:43:47.449Z,34.25
2022-11-02T19:46:18.685Z,48.30
2022-11-02T19:48:47.069Z,60.15
2022-11-02T19:51:20.153Z,40.92
2022-11-02T19:53:50.262Z,44.95
2022-11-02T19:56:19.339Z,47.17
2022-11-02T19:58:48.386Z,46.53
2022-11-02T20:01:19.584Z,41.60
2022-11-02T20:03:48.348Z,53.53
2022-11-02T20:06:18.660Z,50.53
2022-11-02T20:08:49.536Z,53.10
2022-11-02T20:11:17.771Z,39.78
2022-11-02T20:13:47.063Z,42.60
2022-11-02T20:16:18.365Z,34.92
2022-11-02T20:18:49.179Z,40.58
2022-11-02T20:21:19.467Z,37.80
2022-11-02T20:23:47.897Z,56.50
2022-11-02T20:26:17.665Z,38.00
2022-11-02T20:28:47.508Z,31.05
2022-11-02T20:31:18.635Z,43.95
2022-11-02T20:33:47.252Z,33.88
2022-11-02T20:36:15.664Z,42.08
2022-11-02T20:38:44.014Z,42.60
2022-11-02T20:41:14.623Z,37.25
2022-11-02T20:43:43.871Z,44.17
2022-11-02T20:49:19.892Z,39.70
2022-11-02T20:51:53.595Z,42.25
2022-11-02T20:54:22.154Z,61.60
2022-11-02T20:56:50.566Z,64.95
2022-11-02T20:59:18.938Z,55.13
2022-11-02T21:01:47.421Z,48.33
2022-11-02T21:04:20.699Z,47.15
2022-11-02T21:06:49.511Z,144.27
2022-11-02T21:09:18.212Z,42.80
2022-11-02T21:12:03.709Z,35.63
2022-11-02T21:14:31.758Z,42.28
2022-11-02T21:16:59.631Z,36.05
2022-11-02T21:19:29.543Z,34.78
2022-11-02T21:21:59.917Z,44.78
2022-11-02T21:24:29.385Z,40.60
2022-11-02T21:26:57.560Z,72.03
2022-11-02T21:29:25.932Z,77.85
2022-11-02T21:31:53.897Z,126.50
2022-11-02T21:34:21.728Z,79.75
2022-11-02T21:36:51.148Z,78.57
2022-11-02T21:39:19.171Z,60.20
2022-11-02T21:41:47.190Z,62.05
2022-11-02T21:44:15.535Z,72.65
2022-11-02T21:46:43.540Z,52.05
2022-11-02T21:49:13.189Z,45.03
2022-11-02T21:51:42.755Z,50.72
2022-11-02T21:54:12.357Z,54.40
2022-11-02T21:56:40.268Z,69.80
2022-11-02T21:59:09.866Z,70.70
2022-11-02T22:01:48.681Z,56.55
2022-11-02T22:04:19.546Z,47.00
2022-11-02T22:06:47.623Z,37.45
2022-11-02T22:09:16.942Z,32.53
2022-11-02T22:11:45.177Z,32.83
2022-11-02T22:14:13.002Z,28.08
2022-11-02T22:16:42.231Z,36.33
2022-11-02T22:19:11.306Z,35.00
2022-11-02T22:21:41.030Z,30.08
2022-11-02T22:24:10.073Z,28.65
2022-11-02T22:26:42.967Z,34.22
2022-11-02T22:29:11.072Z,31.13
2022-11-02T22:31:40.806Z,65.82
2022-11-02T22:34:14.181Z,36.40
2022-11-02T22:36:43.936Z,34.53
2022-11-02T22:39:12.691Z,30.55
2022-11-02T22:41:43.965Z,33.40
2022-11-02T22:44:14.340Z,29.15
2022-11-02T22:46:45.321Z,40.97
2022-11-02T22:49:14.741Z,35.08
2022-11-02T22:51:45.697Z,28.15
2022-11-02T22:54:15.939Z,21.83
2022-11-02T22:56:46.554Z,29.85
2022-11-02T22:59:15.977Z,31.77
2022-11-02T23:01:44.375Z,28.50
2022-11-02T23:04:13.479Z,34.08
2022-11-02T23:06:41.674Z,27.17
2022-11-02T23:09:12.066Z,25.73
2022-11-02T23:11:39.999Z,25.30
2022-11-02T23:14:11.345Z,32.55
2022-11-02T23:16:42.387Z,34.50
2022-11-02T23:19:30.327Z,27.55
2022-11-02T23:22:17.399Z,35.80
2022-11-02T23:25:07.635Z,28.38
2022-11-02T23:51:51.106Z,27.77
2022-11-02T23:54:36.723Z,20.88
2022-11-02T23:57:04.740Z,21.15
2022-11-02T23:59:32.697Z,21.50
